Time;durP1;ratioP1;P1;durP2;ratioP2;P2;SDS_P1;SDS_P2;PMS_P1;PMS_P2;Temp;Humidity;BMP_temperature;BMP_pressure;BME280_temperature;BME280_humidity;BME280_pressure;Samples;Min_cycle;Max_cycle;Signal;HPM_P1;HPM_P2
2022/06/05 10:17:54;;;;;;;54.88;14.27;;;25.00;76.30;;;;;;5077884;28;20225;-46
2022/06/05 10:20:23;;;;;;;44.97;14.05;;;24.40;77.10;;;;;;5024068;28;20328;-40
2022/06/05 10:23:18;;;;;;;26.55;15.05;;;24.10;78.00;;;;;;5036755;28;20305;-43
2022/06/05 10:26:17;;;;;;;24.83;13.82;;;23.90;78.80;;;;;;5012206;28;20228;-43
2022/06/05 10:28:43;;;;;;;19.92;12.73;;;23.80;79.40;;;;;;5036694;28;20037;-43
2022/06/05 10:31:21;;;;;;;19.15;12.13;;;23.80;79.90;;;;;;5024915;28;20072;-43
2022/06/05 10:34:23;;;;;;;17.70;11.30;;;23.80;80.70;;;;;;5018099;28;20030;-42
2022/06/05 10:37:24;;;;;;;16.23;10.98;;;23.80;81.70;;;;;;5016199;28;20142;-42
2022/06/05 10:40:08;;;;;;;13.45;10.25;;;23.70;81.90;;;;;;5016500;28;20029;-41
2022/06/05 10:42:55;;;;;;;11.70;9.75;;;23.70;82.40;;;;;;5022361;28;20089;-44
2022/06/05 10:45:47;;;;;;;12.00;10.70;;;23.70;82.70;;;;;;5017594;28;20026;-43
2022/06/05 10:48:22;;;;;;;14.23;11.77;;;23.60;82.90;;;;;;5017345;28;20237;-43
2022/06/05 10:50:55;;;;;;;11.32;10.20;;;23.70;83.10;;;;;;5000224;28;20030;-42
2022/06/05 10:53:58;;;;;;;16.15;11.32;;;23.70;82.90;;;;;;5017102;28;20033;-43
2022/06/05 10:56:42;;;;;;;12.90;11.55;;;23.60;83.10;;;;;;4997989;28;20039;-41
2022/06/05 10:59:10;;;;;;;12.65;10.85;;;23.60;83.00;;;;;;5016025;28;20022;-43
2022/06/05 11:02:23;;;;;;;13.75;10.27;;;23.60;83.00;;;;;;5016389;28;20010;-41
2022/06/05 11:05:26;;;;;;;13.88;10.63;;;23.60;83.10;;;;;;5015655;28;20030;-44
2022/06/05 11:08:12;;;;;;;12.10;10.60;;;23.60;83.60;;;;;;5015802;28;20053;-43
2022/06/05 11:14:12;;;;;;;11.65;9.95;;;23.60;84.00;;;;;;5027112;28;20096;-46
2022/06/05 11:16:59;;;;;;;14.60;9.75;;;23.60;83.50;;;;;;5015628;28;20105;-40
2022/06/05 11:20:02;;;;;;;10.80;9.70;;;23.70;83.40;;;;;;5015777;28;20129;-41
2022/06/05 11:22:29;;;;;;;11.45;9.52;;;23.70;83.20;;;;;;5015221;28;20021;-46
2022/06/05 11:24:57;;;;;;;11.15;9.13;;;23.70;83.40;;;;;;5015394;28;20034;-41
2022/06/05 11:27:58;;;;;;;11.63;9.73;;;23.60;83.40;;;;;;5008642;28;20253;-45
2022/06/05 11:30:38;;;;;;;12.93;10.80;;;23.60;83.80;;;;;;4969937;28;20030;-44
2022/06/05 11:33:18;;;;;;;12.52;9.82;;;23.60;84.10;;;;;;5002249;28;20026;-44
2022/06/05 11:36:27;;;;;;;12.45;10.07;;;23.60;84.00;;;;;;5002054;28;20022;-44
2022/06/05 11:39:16;;;;;;;12.48;9.73;;;23.50;84.00;;;;;;5000627;28;20285;-44
2022/06/05 11:44:34;;;;;;;11.85;10.30;;;;;;;;;;5125796;27;20136;-73
2022/06/05 11:47:46;;;;;;;10.98;9.57;;;23.60;85.30;;;;;;5109765;28;20042;-73
2022/06/05 11:50:34;;;;;;;11.40;9.68;;;23.50;87.80;;;;;;5117365;28;20345;-73
2022/06/05 11:53:27;;;;;;;11.98;9.73;;;23.10;87.50;;;;;;5101584;28;20016;-73
2022/06/05 11:56:14;;;;;;;11.75;9.70;;;22.70;89.90;;;;;;5097954;28;20024;-73
2022/06/05 11:59:22;;;;;;;10.95;8.98;;;22.30;90.60;;;;;;5117875;28;20015;-73
2022/06/05 12:01:54;;;;;;;10.90;9.80;;;22.20;91.20;;;;;;5099261;28;20028;-73
2022/06/05 12:04:46;;;;;;;13.40;10.32;;;22.10;92.20;;;;;;5097974;28;20068;-74
2022/06/05 12:07:12;;;;;;;12.25;10.95;;;22.10;92.20;;;;;;5111928;28;20062;-77
2022/06/05 12:10:02;;;;;;;12.55;10.73;;;22.00;92.10;;;;;;5079584;28;20581;-81
2022/06/05 12:12:38;;;;;;;12.07;10.07;;;21.90;92.70;;;;;;5069485;28;20039;-82
2022/06/05 12:15:25;;;;;;;10.88;9.77;;;21.80;93.00;;;;;;5084882;28;20039;-82
2022/06/05 12:18:07;;;;;;;18.38;13.27;;;21.80;93.00;;;;;;5096011;28;20031;-76
2022/06/05 12:21:09;;;;;;;23.35;20.05;;;21.90;93.50;;;;;;5072059;28;20078;-77
2022/06/05 12:24:02;;;;;;;13.98;11.77;;;21.70;93.00;;;;;;5117406;28;20059;-75
2022/06/05 12:26:52;;;;;;;15.07;9.88;;;21.70;93.30;;;;;;5120250;28;20214;-75
2022/06/05 12:29:40;;;;;;;11.93;10.38;;;21.70;93.90;;;;;;5093767;28;20032;-77
2022/06/05 12:32:16;;;;;;;11.20;10.00;;;21.70;94.70;;;;;;5101125;28;20031;-76
2022/06/05 12:34:51;;;;;;;11.10;9.52;;;21.80;94.80;;;;;;5108532;28;20031;-78
2022/06/05 12:37:25;;;;;;;10.80;9.68;;;21.80;94.90;;;;;;5084160;28;20020;-77
2022/06/05 12:39:53;;;;;;;10.57;9.18;;;21.80;94.30;;;;;;5116567;28;20044;-76
2022/06/05 12:42:31;;;;;;;9.30;8.40;;;21.90;94.60;;;;;;5081096;28;20046;-76
2022/06/05 12:45:18;;;;;;;10.52;9.38;;;21.90;93.80;;;;;;5116200;28;20057;-75
2022/06/05 12:48:15;;;;;;;12.48;9.35;;;21.90;93.80;;;;;;5108565;28;20372;-77
2022/06/05 12:50:55;;;;;;;11.43;9.00;;;22.00;93.90;;;;;;5108041;28;20111;-76
2022/06/05 12:53:52;;;;;;;10.18;9.13;;;22.10;94.00;;;;;;5095106;28;20043;-77
2022/06/05 12:56:44;;;;;;;12.45;10.13;;;22.30;93.20;;;;;;5082498;28;20032;-78
2022/06/05 12:59:19;;;;;;;10.73;9.20;;;22.40;92.80;;;;;;5083956;28;20028;-77
2022/06/05 13:02:26;;;;;;;12.35;10.20;;;22.60;93.60;;;;;;5101364;28;20242;-76
2022/06/05 13:05:32;;;;;;;10.55;9.52;;;23.00;93.90;;;;;;5094064;28;20036;-77
2022/06/05 13:08:12;;;;;;;9.95;8.43;;;23.20;93.40;;;;;;5092690;28;20024;-74
2022/06/05 13:10:53;;;;;;;9.77;8.50;;;23.40;91.90;;;;;;5081338;28;20035;-74
2022/06/05 13:13:34;;;;;;;8.90;8.00;;;23.60;91.90;;;;;;5093224;28;20095;-73
2022/06/05 13:16:04;;;;;;;9.10;7.93;;;23.80;90.40;;;;;;5082263;28;20087;-75
2022/06/05 13:18:41;;;;;;;8.57;7.68;;;23.90;91.00;;;;;;5085200;28;20058;-74
2022/06/05 13:21:40;;;;;;;9.35;8.48;;;24.00;91.00;;;;;;5102692;28;20024;-73
2022/06/05 13:24:22;;;;;;;10.30;7.85;;;24.20;90.50;;;;;;5100250;28;20035;-73
2022/06/05 13:27:13;;;;;;;8.10;7.30;;;24.10;90.00;;;;;;5103330;28;20093;-71
2022/06/05 13:30:18;;;;;;;9.18;7.85;;;24.10;90.40;;;;;;5101386;28;20038;-73
2022/06/05 13:33:04;;;;;;;8.90;7.70;;;24.00;90.10;;;;;;5088104;28;20039;-74
2022/06/05 13:35:52;;;;;;;10.18;9.02;;;24.00;90.30;;;;;;5097087;28;20126;-71
2022/06/05 13:38:38;;;;;;;9.50;8.18;;;24.00;89.20;;;;;;5082435;28;20032;-71
2022/06/05 13:41:46;;;;;;;14.50;9.05;;;23.90;88.30;;;;;;5095517;28;20043;-71
2022/06/05 13:44:20;;;;;;;9.80;8.68;;;23.90;88.50;;;;;;5081630;28;20051;-71
2022/06/05 13:47:04;;;;;;;13.02;9.07;;;24.10;89.30;;;;;;5070569;28;20118;-71
2022/06/05 13:49:51;;;;;;;10.20;8.23;;;24.30;89.20;;;;;;5082621;28;20048;-71
2022/06/05 13:52:48;;;;;;;9.25;7.80;;;24.40;87.90;;;;;;5094429;28;20376;-71
2022/06/05 13:55:21;;;;;;;10.48;8.60;;;24.20;86.50;;;;;;5101281;28;20020;-74
2022/06/05 13:58:17;;;;;;;9.48;8.45;;;24.20;87.50;;;;;;5100620;28;20050;-74
2022/06/05 14:00:55;;;;;;;10.82;8.05;;;24.20;88.90;;;;;;5096665;28;20068;-73
2022/06/05 14:03:41;;;;;;;10.73;9.02;;;24.10;90.00;;;;;;5099617;28;20031;-73
2022/06/05 14:06:22;;;;;;;10.65;9.15;;;24.00;89.00;;;;;;5099182;28;20024;-74
2022/06/05 14:08:59;;;;;;;11.77;9.55;;;23.80;90.00;;;;;;5095948;28;20051;-78
2022/06/05 14:11:42;;;;;;;9.98;8.38;;;23.70;90.40;;;;;;5080491;28;20020;-77
2022/06/05 14:14:08;;;;;;;11.43;9.40;;;23.80;90.70;;;;;;5092846;28;20062;-74
2022/06/05 14:16:46;;;;;;;13.70;10.85;;;23.80;91.10;;;;;;5100865;28;20326;-74
2022/06/05 14:19:29;;;;;;;10.27;7.20;;;23.80;91.00;;;;;;5100424;28;20035;-73
2022/06/05 14:22:06;;;;;;;6.93;4.03;;;23.60;88.00;;;;;;5083376;28;20015;-74
2022/06/05 14:24:40;;;;;;;5.22;2.85;;;23.20;84.40;;;;;;5085200;28;20042;-75
2022/06/05 14:27:06;;;;;;;4.95;2.78;;;23.20;85.90;;;;;;5089292;28;20020;-78
2022/06/05 14:29:40;;;;;;;4.40;2.53;;;23.20;88.20;;;;;;5108176;28;20135;-80
2022/06/05 14:32:34;;;;;;;3.83;2.67;;;23.20;86.10;;;;;;5083394;28;20024;-73
2022/06/05 14:35:12;;;;;;;5.90;2.50;;;23.20;86.80;;;;;;5099710;28;20070;-71
2022/06/05 14:37:40;;;;;;;5.47;2.38;;;23.10;83.50;;;;;;5085674;28;20022;-72
2022/06/05 14:40:14;;;;;;;4.93;2.30;;;23.00;86.90;;;;;;5084866;28;20043;-71
2022/06/05 14:43:03;;;;;;;4.22;2.05;;;22.90;85.90;;;;;;5085322;28;20036;-69
2022/06/05 14:45:43;;;;;;;2.33;2.00;;;23.00;88.70;;;;;;5100624;28;20035;-69
2022/06/05 14:48:18;;;;;;;4.95;2.78;;;22.80;84.50;;;;;;5064497;28;20100;-69
2022/06/05 14:51:02;;;;;;;3.55;2.45;;;22.60;85.00;;;;;;5079094;28;20087;-69
2022/06/05 14:53:50;;;;;;;4.63;2.83;;;22.50;86.00;;;;;;5080267;28;20040;-70
2022/06/05 14:59:36;;;;;;;3.05;2.35;;;22.40;87.80;;;;;;5079940;28;20350;-68
2022/06/05 15:02:26;;;;;;;5.18;3.17;;;22.50;90.60;;;;;;5086978;28;20027;-68
2022/06/05 15:05:20;;;;;;;3.42;2.45;;;22.40;90.40;;;;;;5084092;28;20031;-68
2022/06/05 15:08:26;;;;;;;5.05;3.20;;;22.40;90.70;;;;;;5098116;28;20016;-69
2022/06/05 15:10:57;;;;;;;5.63;4.63;;;22.40;91.40;;;;;;5094465;28;20261;-69
2022/06/05 15:13:47;;;;;;;5.45;3.40;;;22.40;91.50;;;;;;5082691;28;20024;-69
2022/06/05 15:16:40;;;;;;;10.70;7.35;;;22.20;91.70;;;;;;5079765;28;20030;-68
2022/06/05 15:19:22;;;;;;;6.15;3.58;;;22.10;92.00;;;;;;5078681;28;20024;-72
2022/06/05 15:22:26;;;;;;;7.45;3.92;;;21.90;92.50;;;;;;5078644;28;20033;-72
2022/06/05 15:25:05;;;;;;;6.22;4.78;;;21.90;93.10;;;;;;5092384;28;20020;-72
2022/06/05 15:27:39;;;;;;;11.35;5.55;;;21.70;93.20;;;;;;5084083;28;20315;-73
2022/06/05 15:30:08;;;;;;;7.95;5.40;;;21.40;93.90;;;;;;5090241;28;20179;-73
2022/06/05 15:32:59;;;;;;;5.18;4.43;;;21.30;94.60;;;;;;5096242;28;20031;-73
2022/06/05 15:35:58;;;;;;;7.63;5.05;;;21.40;94.70;;;;;;5097850;28;20056;-74
2022/06/05 15:38:58;;;;;;;5.72;4.97;;;21.30;94.20;;;;;;5096517;28;20021;-73
2022/06/05 15:42:14;;;;;;;6.40;4.68;;;21.40;95.00;;;;;;5095410;28;20051;-71
2022/06/05 15:44:51;;;;;;;7.53;4.97;;;21.40;94.70;;;;;;5099711;28;20032;-73
2022/06/05 15:47:36;;;;;;;5.85;4.68;;;21.20;95.00;;;;;;5084226;28;20092;-73
2022/06/05 15:50:21;;;;;;;5.78;4.63;;;21.30;95.20;;;;;;5100095;28;20043;-73
2022/06/05 15:53:27;;;;;;;7.72;4.60;;;21.40;95.20;;;;;;5080262;28;20220;-73
2022/06/05 15:56:28;;;;;;;5.90;4.60;;;21.50;95.10;;;;;;5079741;28;20039;-73
2022/06/05 15:59:04;;;;;;;8.00;4.90;;;21.20;94.30;;;;;;5079595;28;20087;-73
2022/06/05 16:01:43;;;;;;;7.47;4.90;;;21.20;94.90;;;;;;5084014;28;20083;-73
2022/06/05 16:04:16;;;;;;;6.30;4.80;;;21.30;94.80;;;;;;5083089;28;20343;-72
2022/06/05 16:07:02;;;;;;;6.28;4.45;;;21.50;95.30;;;;;;5094104;28;20076;-72
2022/06/05 16:09:37;;;;;;;5.57;4.90;;;21.60;95.30;;;;;;5079774;28;20115;-72
2022/06/05 16:12:38;;;;;;;7.55;4.70;;;21.50;94.40;;;;;;5098988;28;20024;-72
2022/06/05 16:15:29;;;;;;;6.60;4.68;;;21.40;94.70;;;;;;5077623;28;20031;-72
2022/06/05 16:18:12;;;;;;;7.43;5.10;;;21.30;94.60;;;;;;5079905;28;20056;-72
2022/06/05 16:21:07;;;;;;;9.88;5.28;;;21.30;94.60;;;;;;5080090;28;20063;-72
2022/06/05 16:24:06;;;;;;;9.88;5.75;;;21.30;95.00;;;;;;5078619;28;20025;-70
2022/06/05 16:26:57;;;;;;;6.07;5.05;;;21.40;95.20;;;;;;5073733;28;20032;-72
2022/06/05 16:29:22;;;;;;;8.02;5.03;;;21.50;95.20;;;;;;5095556;28;20308;-72
2022/06/05 16:31:50;;;;;;;7.47;4.50;;;21.30;95.10;;;;;;5085428;28;20046;-71
2022/06/05 16:40:05;;;;;;;6.18;4.20;;;21.40;94.70;;;;;;5083083;28;20032;-72
2022/06/05 16:42:32;;;;;;;6.93;4.40;;;21.50;94.60;;;;;;5081912;28;20060;-71
2022/06/05 16:45:12;;;;;;;5.68;4.30;;;21.60;94.30;;;;;;5090004;28;20269;-71
2022/06/05 16:47:58;;;;;;;9.88;4.72;;;21.60;94.80;;;;;;5103199;28;20106;-71
2022/06/05 16:51:12;;;;;;;10.63;5.90;;;21.70;94.50;;;;;;5082288;28;20082;-74
2022/06/05 16:54:09;;;;;;;6.05;4.20;;;21.60;94.60;;;;;;5083316;28;20135;-71
2022/06/05 16:57:08;;;;;;;6.03;4.70;;;21.50;94.80;;;;;;5082512;28;20027;-71
2022/06/05 16:59:56;;;;;;;7.97;4.75;;;21.50;94.90;;;;;;5083616;28;20087;-71
2022/06/05 17:02:22;;;;;;;5.63;4.20;;;21.40;95.00;;;;;;5095282;28;20047;-71
2022/06/05 17:05:16;;;;;;;5.60;4.43;;;21.30;95.00;;;;;;5083145;28;20088;-71
2022/06/05 17:07:50;;;;;;;6.13;4.43;;;21.30;95.20;;;;;;5083195;28;20020;-71
2022/06/05 17:10:28;;;;;;;6.93;4.25;;;21.10;94.60;;;;;;5083457;28;20323;-71
2022/06/05 17:13:25;;;;;;;4.97;3.15;;;21.00;94.60;;;;;;5083104;28;20016;-71
2022/06/05 17:15:56;;;;;;;5.43;3.28;;;21.00;94.40;;;;;;5083226;28;20040;-71
2022/06/05 17:18:21;;;;;;;4.90;3.30;;;21.10;94.40;;;;;;5082561;28;20021;-71
2022/06/05 17:20:56;;;;;;;5.90;3.30;;;21.00;94.10;;;;;;5082394;28;20024;-71
2022/06/05 17:23:23;;;;;;;6.85;3.05;;;21.00;94.60;;;;;;5082767;28;20066;-71
2022/06/05 17:26:24;;;;;;;;;;;21.00;94.40;;;;;;5082278;28;20027;-71
2022/06/05 17:29:15;;;;;;;5.47;4.05;;;20.90;94.70;;;;;;5098354;28;19927;-71
2022/06/05 17:32:23;;;;;;;9.32;5.70;;;20.80;95.20;;;;;;5087368;28;20172;-71
2022/06/05 17:35:19;;;;;;;5.85;3.30;;;20.70;95.20;;;;;;5079591;28;20426;-71
2022/06/05 17:38:15;;;;;;;7.55;3.70;;;20.80;95.20;;;;;;5102769;28;20061;-71
2022/06/05 17:41:19;;;;;;;5.60;3.55;;;20.70;95.30;;;;;;5089058;28;20021;-71
2022/06/05 17:44:12;;;;;;;7.25;4.05;;;20.90;95.10;;;;;;5071134;28;20359;-71
2022/06/05 17:46:47;;;;;;;9.05;4.13;;;20.80;95.00;;;;;;5086171;28;20054;-71
2022/06/05 17:49:37;;;;;;;7.35;3.58;;;20.80;95.20;;;;;;5102909;28;20027;-71
2022/06/05 17:52:03;;;;;;;5.57;3.03;;;20.70;95.30;;;;;;5114165;28;20115;-71
2022/06/05 17:54:31;;;;;;;6.80;3.53;;;20.70;95.20;;;;;;5082359;28;20067;-71
2022/06/05 17:57:10;;;;;;;5.75;2.47;;;20.70;95.40;;;;;;5081013;28;20024;-71
2022/06/05 17:59:42;;;;;;;4.50;2.85;;;20.70;95.40;;;;;;5088018;28;20024;-71
2022/06/05 18:02:25;;;;;;;3.65;2.45;;;20.70;95.40;;;;;;5083986;28;20105;-72
2022/06/05 18:05:03;;;;;;;3.17;2.33;;;20.70;95.40;;;;;;5101479;28;20016;-72
2022/06/05 18:07:40;;;;;;;5.22;2.60;;;20.70;95.10;;;;;;5101318;28;20034;-71
2022/06/05 18:10:27;;;;;;;5.85;2.58;;;20.70;95.20;;;;;;5102494;28;20237;-71
2022/06/05 18:12:53;;;;;;;4.78;2.83;;;20.70;95.50;;;;;;5100305;28;20063;-72
2022/06/05 18:15:22;;;;;;;5.23;2.83;;;20.70;95.40;;;;;;5101394;28;20024;-72
2022/06/05 18:18:08;;;;;;;4.93;2.22;;;20.70;95.10;;;;;;5083988;28;20032;-71
2022/06/05 18:20:52;;;;;;;2.70;2.17;;;20.60;95.40;;;;;;5100647;28;20326;-71
2022/06/05 18:23:25;;;;;;;4.30;2.17;;;20.60;95.40;;;;;;5100511;28;20036;-71
2022/06/05 18:25:55;;;;;;;4.85;2.05;;;20.60;95.60;;;;;;5101238;28;20065;-71
2022/06/05 18:28:41;;;;;;;3.47;2.20;;;20.60;95.40;;;;;;5088820;28;20083;-71
2022/06/05 18:31:59;;;;;;;4.85;2.40;;;20.50;95.60;;;;;;5081248;28;20297;-71
2022/06/05 18:34:30;;;;;;;4.40;1.95;;;20.40;95.70;;;;;;5066820;28;20130;-71
2022/06/05 18:40:19;;;;;;;2.92;2.00;;;20.40;95.90;;;;;;5081367;28;20031;-70
2022/06/05 18:42:45;;;;;;;3.53;2.05;;;20.50;95.50;;;;;;5080770;28;20032;-70
2022/06/05 18:45:21;;;;;;;3.25;1.50;;;20.60;95.40;;;;;;5086092;28;20047;-70
2022/06/05 18:47:50;;;;;;;2.92;2.10;;;20.60;95.20;;;;;;5084042;28;20083;-71
2022/06/05 18:50:34;;;;;;;8.60;2.20;;;20.60;95.40;;;;;;5100472;28;20088;-70
2022/06/05 18:53:03;;;;;;;7.13;2.35;;;20.60;95.20;;;;;;5099366;28;20024;-70
2022/06/05 18:55:41;;;;;;;3.08;2.00;;;20.60;95.30;;;;;;5083802;28;20062;-70
2022/06/05 18:58:33;;;;;;;3.70;1.98;;;20.60;95.30;;;;;;5083911;28;20028;-70
2022/06/05 19:01:00;;;;;;;6.22;2.08;;;20.60;95.20;;;;;;5098661;28;20069;-70
2022/06/05 19:03:28;;;;;;;;;;;20.40;95.50;;;;;;5101105;28;20024;-70
2022/06/05 19:05:55;;;;;;;;;;;20.40;95.60;;;;;;5102147;28;19956;-71
2022/06/05 19:08:31;;;;;;;4.82;2.10;;;20.40;95.70;;;;;;5100169;28;19970;-71
2022/06/05 19:11:27;;;;;;;7.10;2.40;;;20.40;95.90;;;;;;5098993;28;20036;-70
2022/06/05 19:13:56;;;;;;;2.45;1.50;;;20.40;96.20;;;;;;5082908;28;20028;-70
2022/06/05 19:16:36;;;;;;;2.72;1.77;;;20.40;95.50;;;;;;5099675;28;20026;-70
2022/06/05 19:19:23;;;;;;;4.20;1.55;;;20.50;95.60;;;;;;5084707;28;20026;-70
2022/06/05 19:22:17;;;;;;;3.30;2.33;;;20.40;95.70;;;;;;5095695;28;20379;-70
2022/06/05 19:25:13;;;;;;;5.10;1.85;;;20.40;95.50;;;;;;5084585;28;20343;-71
2022/06/05 19:27:59;;;;;;;6.10;1.85;;;20.20;95.80;;;;;;5045121;28;20024;-70
2022/06/05 19:30:35;;;;;;;7.45;1.63;;;20.10;96.10;;;;;;5100494;28;20028;-70
2022/06/05 19:33:27;;;;;;;3.25;1.75;;;20.10;96.40;;;;;;5100451;28;20020;-70
2022/06/05 19:39:32;;;;;;;7.78;1.83;;;20.10;96.20;;;;;;5085480;28;20027;-70
2022/06/05 19:42:00;;;;;;;2.88;1.45;;;20.20;96.50;;;;;;5091823;28;20035;-70
2022/06/05 19:44:29;;;;;;;4.38;1.63;;;20.30;96.60;;;;;;5081165;28;20232;-70
2022/06/05 19:47:33;;;;;;;2.20;1.50;;;20.30;95.80;;;;;;5079806;28;20088;-70
2022/06/05 19:50:02;;;;;;;3.33;1.80;;;20.30;95.30;;;;;;5079537;28;20034;-70
2022/06/05 19:52:33;;;;;;;3.22;1.52;;;20.20;95.50;;;;;;5078832;28;20036;-70
2022/06/05 19:55:06;;;;;;;5.13;1.88;;;20.20;95.30;;;;;;5079941;28;20036;-70
2022/06/05 19:57:34;;;;;;;4.38;1.75;;;20.30;95.80;;;;;;5063001;28;20366;-70
2022/06/05 20:00:06;;;;;;;5.22;1.73;;;20.20;95.30;;;;;;5095727;28;20303;-70
2022/06/05 20:02:32;;;;;;;5.80;2.20;;;20.20;95.70;;;;;;5100187;28;20020;-70
2022/06/05 20:04:58;;;;;;;4.70;1.90;;;20.20;95.60;;;;;;5085304;28;20074;-70
2022/06/05 20:07:36;;;;;;;4.55;1.90;;;20.10;95.40;;;;;;5104838;28;20099;-70
2022/06/05 20:10:28;;;;;;;4.25;1.90;;;20.00;95.30;;;;;;5083518;28;20109;-70
2022/06/05 20:13:00;;;;;;;3.38;1.45;;;20.00;96.30;;;;;;5083693;28;20024;-70
2022/06/05 20:15:29;;;;;;;5.50;1.90;;;20.10;95.80;;;;;;5098386;28;20031;-70
2022/06/05 20:18:08;;;;;;;2.08;1.60;;;20.00;95.00;;;;;;5104963;28;20024;-70
2022/06/05 20:20:50;;;;;;;2.42;1.67;;;20.00;95.50;;;;;;5102552;28;20090;-69
2022/06/05 20:23:42;;;;;;;3.40;1.50;;;20.10;95.60;;;;;;5086832;28;20115;-70
2022/06/05 20:26:29;;;;;;;4.20;1.92;;;20.10;95.40;;;;;;5086133;28;20392;-69
2022/06/05 20:29:22;;;;;;;1.60;1.43;;;20.10;95.40;;;;;;5103596;28;20028;-71
2022/06/05 20:31:58;;;;;;;2.33;1.77;;;20.00;95.10;;;;;;5067389;28;20029;-71
2022/06/05 20:34:40;;;;;;;4.43;1.80;;;20.00;94.80;;;;;;5082861;28;20173;-72
2022/06/05 20:37:19;;;;;;;2.80;1.60;;;19.90;95.10;;;;;;5098565;28;20085;-72
2022/06/05 20:40:07;;;;;;;2.78;1.50;;;19.90;95.60;;;;;;5082658;28;20084;-71
2022/06/05 20:42:52;;;;;;;4.28;1.63;;;19.70;94.90;;;;;;5066339;28;20447;-71
2022/06/05 20:45:20;;;;;;;2.67;1.70;;;19.60;95.20;;;;;;5059568;28;20043;-71
2022/06/05 20:48:06;;;;;;;2.03;1.52;;;19.40;95.60;;;;;;5083833;28;20016;-71
2022/06/05 20:51:12;;;;;;;3.03;1.50;;;19.30;95.80;;;;;;5094392;28;20319;-71
2022/06/05 20:53:50;;;;;;;4.72;1.73;;;19.30;95.70;;;;;;5088679;28;20059;-71
2022/06/05 20:56:46;;;;;;;3.75;1.88;;;19.10;95.90;;;;;;5085461;28;20323;-71
2022/06/05 20:59:17;;;;;;;2.00;1.40;;;19.10;95.90;;;;;;5081154;28;20036;-72
2022/06/05 21:07:51;;;;;;;2.42;2.10;;;19.40;96.30;;;;;;5086452;28;20026;-71
2022/06/05 21:10:17;;;;;;;5.93;2.20;;;19.40;96.30;;;;;;5082180;28;20024;-72
2022/06/05 21:18:20;;;;;;;4.35;2.33;;;19.40;95.40;;;;;;5096464;28;20385;-72
2022/06/05 21:20:48;;;;;;;4.03;1.52;;;19.40;96.20;;;;;;5096961;28;20051;-71
2022/06/05 21:23:14;;;;;;;3.47;1.83;;;19.40;95.50;;;;;;5098288;28;20045;-71
2022/06/05 21:25:45;;;;;;;3.17;1.43;;;19.40;95.80;;;;;;5098928;28;20346;-71
2022/06/05 21:28:27;;;;;;;4.97;2.10;;;19.30;95.90;;;;;;5098088;28;20062;-72
2022/06/05 21:30:56;;;;;;;4.95;1.92;;;19.40;96.40;;;;;;5096830;28;20087;-72
2022/06/05 21:33:21;;;;;;;1.70;1.42;;;19.40;96.20;;;;;;5098576;28;20020;-72
2022/06/05 21:35:53;;;;;;;3.28;1.15;;;19.30;95.50;;;;;;5083082;28;20331;-72
2022/06/05 21:38:36;;;;;;;1.23;1.10;;;19.20;95.10;;;;;;5098142;28;20032;-71
2022/06/05 21:41:34;;;;;;;4.03;1.50;;;19.20;95.40;;;;;;5081703;28;20082;-71
2022/06/05 21:44:18;;;;;;;2.67;1.30;;;19.20;95.40;;;;;;5082623;28;20025;-72
2022/06/05 21:46:49;;;;;;;2.88;2.08;;;19.10;95.40;;;;;;5099490;28;20051;-72
2022/06/05 21:49:15;;;;;;;2.28;1.50;;;19.00;96.00;;;;;;5086120;28;20043;-72
2022/06/05 21:51:41;;;;;;;2.30;1.83;;;19.10;96.10;;;;;;5084577;28;20054;-72
2022/06/05 21:54:09;;;;;;;4.88;1.85;;;19.10;96.10;;;;;;5085158;28;20031;-72
2022/06/05 21:56:45;;;;;;;1.40;1.10;;;19.00;96.00;;;;;;5068802;28;20020;-72
2022/06/05 21:59:11;;;;;;;2.97;1.50;;;18.80;95.80;;;;;;5084451;28;20019;-72
2022/06/05 22:01:39;;;;;;;2.83;1.95;;;18.90;95.90;;;;;;5100801;28;20343;-72
2022/06/05 22:04:07;;;;;;;2.10;1.55;;;18.90;96.20;;;;;;5084735;28;20085;-72
2022/06/05 22:06:33;;;;;;;2.35;1.70;;;18.90;95.60;;;;;;5101859;28;20348;-72
2022/06/05 22:09:04;;;;;;;1.53;1.43;;;18.90;95.70;;;;;;5103036;28;20036;-72
2022/06/05 22:11:38;;;;;;;2.88;1.27;;;18.90;95.60;;;;;;5084793;28;20258;-72
2022/06/05 22:14:18;;;;;;;3.13;1.42;;;18.80;95.40;;;;;;5103016;28;20053;-72
2022/06/05 22:16:51;;;;;;;1.50;1.25;;;18.80;95.80;;;;;;5102844;28;20097;-72
2022/06/05 22:19:18;;;;;;;1.42;1.33;;;18.80;96.10;;;;;;5101891;28;20326;-72
2022/06/05 22:21:46;;;;;;;2.22;1.70;;;18.70;95.90;;;;;;5100993;28;20043;-72
2022/06/05 22:24:14;;;;;;;1.88;1.30;;;18.70;96.60;;;;;;5084087;28;20091;-72
2022/06/05 22:26:40;;;;;;;1.95;1.23;;;18.70;95.80;;;;;;5083983;28;20039;-72
2022/06/05 22:29:06;;;;;;;1.77;1.57;;;18.70;96.20;;;;;;5101149;28;20032;-72
2022/06/05 22:31:32;;;;;;;2.03;1.83;;;18.70;96.50;;;;;;5101800;28;20223;-72
2022/06/05 22:33:57;;;;;;;2.97;1.00;;;18.60;95.90;;;;;;5099238;28;20036;-72
2022/06/05 22:36:23;;;;;;;3.40;1.97;;;18.70;96.00;;;;;;5082562;28;20040;-72
2022/06/05 22:38:50;;;;;;;1.50;1.13;;;18.60;96.10;;;;;;5080498;28;20031;-72
2022/06/05 22:41:19;;;;;;;2.90;1.48;;;18.60;96.10;;;;;;5081306;28;20065;-73
2022/06/05 22:43:45;;;;;;;2.83;1.20;;;18.60;96.00;;;;;;5080549;28;20059;-73
2022/06/05 22:46:11;;;;;;;1.48;1.15;;;18.60;96.30;;;;;;5087864;28;20315;-72
2022/06/05 22:48:37;;;;;;;1.77;1.15;;;18.50;95.80;;;;;;5100917;28;20100;-72
2022/06/05 22:51:03;;;;;;;1.83;1.20;;;18.50;95.70;;;;;;5101354;28;20066;-73
2022/06/05 22:53:30;;;;;;;5.55;1.40;;;18.50;96.10;;;;;;5102142;28;20019;-72
2022/06/05 22:55:56;;;;;;;2.10;1.10;;;18.40;96.30;;;;;;5084090;28;20531;-73
2022/06/05 22:58:22;;;;;;;4.30;1.53;;;18.50;96.10;;;;;;5101886;28;20027;-72
2022/06/05 23:00:48;;;;;;;3.10;1.10;;;18.50;96.60;;;;;;5082862;28;20036;-73
2022/06/05 23:03:15;;;;;;;;;;;18.50;96.50;;;;;;5101050;28;20024;-73
2022/06/05 23:05:42;;;;;;;1.25;1.02;;;18.40;96.10;;;;;;5117416;28;19903;-73
2022/06/05 23:08:08;;;;;;;3.05;1.20;;;18.40;96.50;;;;;;5100499;28;20024;-72
2022/06/05 23:10:34;;;;;;;1.50;1.23;;;18.40;96.10;;;;;;5083364;28;20024;-73
2022/06/05 23:12:59;;;;;;;4.10;1.03;;;18.40;96.30;;;;;;5092517;28;20032;-73
2022/06/05 23:15:25;;;;;;;2.37;1.00;;;18.40;95.80;;;;;;5080169;28;20058;-73
2022/06/05 23:17:51;;;;;;;0.97;0.80;;;18.30;96.10;;;;;;5079825;28;20028;-73
2022/06/05 23:20:17;;;;;;;2.27;1.20;;;18.30;96.40;;;;;;5081241;28;20020;-72
2022/06/05 23:22:42;;;;;;;1.73;1.30;;;18.40;96.60;;;;;;5079194;28;20279;-72
2022/06/05 23:25:08;;;;;;;3.00;1.20;;;18.30;96.60;;;;;;5080170;28;20032;-72
2022/06/05 23:27:34;;;;;;;1.40;1.07;;;18.30;96.60;;;;;;5081221;28;20043;-72
2022/06/05 23:30:00;;;;;;;2.13;1.30;;;18.30;96.00;;;;;;5080180;28;20043;-72
2022/06/05 23:32:26;;;;;;;1.10;1.00;;;18.30;96.70;;;;;;5080574;28;20028;-72
2022/06/05 23:34:52;;;;;;;1.52;1.20;;;18.30;96.70;;;;;;5080249;28;20020;-72
2022/06/05 23:37:19;;;;;;;2.43;1.30;;;18.20;96.70;;;;;;5079978;28;20039;-72
2022/06/05 23:39:44;;;;;;;2.83;1.10;;;18.20;96.70;;;;;;5081036;28;20024;-72
2022/06/05 23:42:10;;;;;;;5.37;1.10;;;18.20;96.20;;;;;;5080346;28;20028;-72
2022/06/05 23:44:36;;;;;;;1.30;1.20;;;18.20;96.70;;;;;;5079874;28;20020;-72
2022/06/05 23:47:02;;;;;;;2.30;1.50;;;18.10;96.70;;;;;;5080285;28;20029;-72
2022/06/05 23:49:29;;;;;;;2.00;1.13;;;18.10;96.40;;;;;;5080721;28;20285;-72
2022/06/05 23:51:55;;;;;;;1.63;1.50;;;18.00;96.40;;;;;;5078913;28;20025;-72
2022/06/05 23:54:21;;;;;;;2.00;1.35;;;17.80;96.40;;;;;;5080604;28;20024;-72
2022/06/05 23:59:31;;;;;;;1.77;1.33;;;17.70;97.30;;;;;;5121397;28;20257;-72
